Time;durP1;ratioP1;P1;durP2;ratioP2;P2;SDS_P1;SDS_P2;PMS_P1;PMS_P2;Temp;Humidity;BMP_temperature;BMP_pressure;BME280_temperature;BME280_humidity;BME280_pressure;Samples;Min_cycle;Max_cycle;Signal;HPM_P1;HPM_P2
2022/03/09 00:00:42;;;;;;;5.65;3.10;;;4.70;99.90;;;;;;5149499;27;20047;-72
2022/03/09 00:03:07;;;;;;;4.88;3.00;;;3.60;99.90;;;;;;5130702;27;20491;-72
2022/03/09 00:05:33;;;;;;;5.63;3.53;;;3.60;99.90;;;;;;5113759;27;20050;-72
2022/03/09 00:07:59;;;;;;;6.53;3.42;;;3.60;99.90;;;;;;5131558;27;20034;-72
2022/03/09 00:10:25;;;;;;;5.50;3.40;;;3.60;99.90;;;;;;5132088;27;20035;-72
2022/03/09 00:12:50;;;;;;;6.28;3.35;;;3.60;99.90;;;;;;5130406;27;20092;-72
2022/03/09 00:15:16;;;;;;;5.28;3.45;;;3.60;99.90;;;;;;5135356;27;20106;-73
2022/03/09 00:17:42;;;;;;;7.18;3.50;;;3.50;99.90;;;;;;5109666;27;20104;-72
2022/03/09 00:20:08;;;;;;;5.35;3.50;;;4.50;99.90;;;;;;5124316;27;20384;-73
2022/03/09 00:22:34;;;;;;;6.75;3.60;;;3.50;99.90;;;;;;5130803;27;20046;-72
2022/03/09 00:24:59;;;;;;;5.00;3.30;;;3.40;99.90;;;;;;5150285;27;20135;-72
2022/03/09 00:27:25;;;;;;;5.53;3.15;;;4.50;99.90;;;;;;5130733;27;20043;-72
2022/03/09 00:29:51;;;;;;;6.45;3.65;;;3.40;99.90;;;;;;5132854;27;20038;-73
2022/03/09 00:32:16;;;;;;;9.65;3.80;;;3.40;99.90;;;;;;5133173;27;20412;-73
2022/03/09 00:34:42;;;;;;;8.52;3.60;;;3.30;99.90;;;;;;5129992;27;20107;-72
2022/03/09 00:37:08;;;;;;;5.50;3.38;;;3.30;99.90;;;;;;5131115;27;20130;-73
2022/03/09 00:39:33;;;;;;;7.05;3.92;;;3.40;99.90;;;;;;5130202;27;20050;-72
2022/03/09 00:41:59;;;;;;;5.20;3.75;;;3.40;99.90;;;;;;5131403;27;20119;-72
2022/03/09 00:44:25;;;;;;;6.90;3.38;;;3.40;99.90;;;;;;5131233;27;20042;-72
2022/03/09 00:46:50;;;;;;;5.97;3.63;;;3.40;99.90;;;;;;5129520;27;20070;-72
2022/03/09 00:49:16;;;;;;;7.50;4.05;;;3.30;99.90;;;;;;5129473;27;20142;-73
2022/03/09 00:51:42;;;;;;;7.65;3.95;;;4.10;99.90;;;;;;5112746;27;20046;-73
2022/03/09 00:54:08;;;;;;;6.65;3.78;;;3.20;99.90;;;;;;5117075;27;20063;-72
2022/03/09 00:56:34;;;;;;;6.25;3.78;;;3.20;99.90;;;;;;5130131;27;20549;-72
2022/03/09 00:58:59;;;;;;;6.75;3.70;;;3.20;99.90;;;;;;5130905;27;20103;-72
2022/03/09 01:01:25;;;;;;;6.85;3.90;;;4.10;99.90;;;;;;5146102;27;20103;-72
2022/03/09 01:03:50;;;;;;;5.93;4.07;;;3.20;99.90;;;;;;5128730;27;20049;-72
2022/03/09 01:06:16;;;;;;;6.60;3.75;;;3.10;99.90;;;;;;5131077;27;20049;-73
2022/03/09 01:08:42;;;;;;;6.60;3.60;;;3.10;99.90;;;;;;5129129;27;20082;-72
2022/03/09 01:11:09;;;;;;;6.38;3.92;;;3.80;99.90;;;;;;5131443;27;20044;-72
2022/03/09 01:13:35;;;;;;;7.32;3.97;;;3.10;99.90;;;;;;5116549;27;20053;-72
2022/03/09 01:16:01;;;;;;;8.25;3.78;;;3.00;99.90;;;;;;5129621;27;20133;-72
2022/03/09 01:18:26;;;;;;;6.90;3.88;;;3.00;99.90;;;;;;5129960;27;20078;-72
2022/03/09 01:20:52;;;;;;;5.80;3.83;;;3.00;99.90;;;;;;5130643;27;20046;-72
2022/03/09 01:23:18;;;;;;;8.13;4.25;;;3.10;99.90;;;;;;5112630;27;20483;-73
2022/03/09 01:25:44;;;;;;;5.88;3.83;;;2.90;99.90;;;;;;5131114;27;20080;-72
2022/03/09 01:28:09;;;;;;;7.63;4.13;;;3.00;99.90;;;;;;5113513;27;20049;-72
2022/03/09 01:30:35;;;;;;;7.28;4.13;;;2.90;99.90;;;;;;5129931;27;20091;-72
2022/03/09 01:33:00;;;;;;;6.95;4.13;;;2.90;99.90;;;;;;5124759;27;20057;-72
2022/03/09 01:35:26;;;;;;;9.70;4.28;;;4.30;99.90;;;;;;5131023;27;20064;-72
2022/03/09 01:37:52;;;;;;;7.65;4.78;;;2.80;99.90;;;;;;5129210;27;20041;-73
2022/03/09 01:40:17;;;;;;;7.72;4.00;;;2.80;99.90;;;;;;5130650;27;20099;-72
2022/03/09 01:42:43;;;;;;;8.98;4.22;;;3.80;99.90;;;;;;5149373;27;20039;-71
2022/03/09 01:45:11;;;;;;;6.38;4.10;;;2.80;99.90;;;;;;5130017;27;20047;-72
2022/03/09 01:47:37;;;;;;;5.95;3.92;;;2.80;99.90;;;;;;5129240;27;20134;-72
2022/03/09 01:50:05;;;;;;;6.63;4.22;;;2.80;99.90;;;;;;5126762;27;20039;-72
2022/03/09 01:52:33;;;;;;;7.72;4.53;;;2.80;99.90;;;;;;5129772;27;20058;-72
2022/03/09 01:54:59;;;;;;;8.68;4.45;;;2.80;99.90;;;;;;5131765;27;20051;-72
2022/03/09 01:57:24;;;;;;;11.38;4.20;;;2.80;99.90;;;;;;5130178;27;20043;-72
2022/03/09 01:59:51;;;;;;;8.73;4.45;;;2.80;99.90;;;;;;5130437;27;20049;-72
2022/03/09 02:02:18;;;;;;;8.52;4.50;;;2.70;99.90;;;;;;5130430;27;20514;-72
2022/03/09 02:04:44;;;;;;;8.15;4.50;;;2.70;99.90;;;;;;5132470;27;20073;-72
2022/03/09 02:07:10;;;;;;;8.25;4.15;;;2.70;99.90;;;;;;5152758;27;20046;-72
2022/03/09 02:09:44;;;;;;;8.18;4.35;;;2.70;99.90;;;;;;5133346;27;20117;-72
2022/03/09 02:12:18;;;;;;;7.38;4.28;;;2.60;99.90;;;;;;5116403;27;20043;-72
2022/03/09 02:14:50;;;;;;;8.20;4.15;;;2.60;99.90;;;;;;5116613;27;20082;-72
2022/03/09 02:17:19;;;;;;;6.60;4.20;;;2.60;99.90;;;;;;5117010;27;20086;-73
2022/03/09 02:19:46;;;;;;;7.63;4.53;;;3.50;99.90;;;;;;5132130;27;20462;-71
2022/03/09 02:22:32;;;;;;;10.13;4.60;;;2.70;99.90;;;;;;5134126;27;20039;-72
2022/03/09 02:24:59;;;;;;;8.32;4.85;;;2.50;99.90;;;;;;5134286;27;20039;-72
2022/03/09 02:27:25;;;;;;;7.63;4.75;;;2.50;99.90;;;;;;5133525;27;20506;-72
2022/03/09 02:29:51;;;;;;;7.00;4.88;;;2.50;99.90;;;;;;5150542;27;20091;-72
2022/03/09 02:32:18;;;;;;;8.63;4.72;;;2.50;99.90;;;;;;5150791;27;20115;-72
2022/03/09 02:34:44;;;;;;;7.07;4.57;;;2.50;99.90;;;;;;5132232;27;20533;-72
2022/03/09 02:37:09;;;;;;;9.02;4.72;;;2.40;99.90;;;;;;5135098;27;20074;-73
2022/03/09 02:39:36;;;;;;;7.70;4.45;;;2.40;99.90;;;;;;5135390;27;20157;-72
2022/03/09 02:42:03;;;;;;;9.18;4.90;;;2.40;99.90;;;;;;5117163;27;20039;-71
2022/03/09 02:44:29;;;;;;;9.20;4.80;;;2.40;99.90;;;;;;5116403;27;20424;-72
2022/03/09 02:46:55;;;;;;;10.68;4.75;;;2.60;99.90;;;;;;5132105;27;20067;-72
2022/03/09 02:49:21;;;;;;;9.55;5.15;;;2.40;99.90;;;;;;5131973;27;20433;-72
2022/03/09 02:51:47;;;;;;;8.60;4.80;;;2.30;99.90;;;;;;5116673;27;20053;-73
2022/03/09 02:54:13;;;;;;;7.63;4.32;;;2.30;99.90;;;;;;5135681;27;20050;-72
2022/03/09 02:56:39;;;;;;;7.63;4.95;;;2.30;99.90;;;;;;5135242;27;20042;-72
2022/03/09 02:59:04;;;;;;;7.80;4.90;;;3.60;99.90;;;;;;5151420;27;20055;-72
2022/03/09 03:01:30;;;;;;;8.30;4.65;;;2.20;99.90;;;;;;5129005;27;20051;-72
2022/03/09 03:03:56;;;;;;;8.45;5.03;;;2.20;99.90;;;;;;5141197;27;20039;-72
2022/03/09 03:06:22;;;;;;;8.48;4.93;;;2.20;99.90;;;;;;5133162;27;20099;-72
2022/03/09 03:08:48;;;;;;;7.45;5.00;;;3.00;99.90;;;;;;5131516;27;20073;-72
2022/03/09 03:11:13;;;;;;;8.70;5.10;;;2.30;99.90;;;;;;5132719;27;20384;-72
2022/03/09 03:13:40;;;;;;;7.97;4.72;;;2.20;99.90;;;;;;5132261;27;20039;-73
2022/03/09 03:16:07;;;;;;;8.80;4.90;;;2.20;99.90;;;;;;5132291;27;20403;-72
2022/03/09 03:18:33;;;;;;;8.57;4.80;;;2.10;99.90;;;;;;5132895;27;20039;-72
2022/03/09 03:20:59;;;;;;;7.90;5.25;;;2.10;99.90;;;;;;5151069;27;20079;-72
2022/03/09 03:23:27;;;;;;;8.27;4.63;;;2.10;99.90;;;;;;5131511;27;20479;-73
2022/03/09 03:25:53;;;;;;;8.35;5.43;;;2.90;99.90;;;;;;5131189;27;20038;-72
2022/03/09 03:28:20;;;;;;;8.18;5.15;;;2.10;99.90;;;;;;5132333;27;20046;-72
2022/03/09 03:30:47;;;;;;;8.93;5.63;;;2.10;99.90;;;;;;5132520;27;20049;-72
2022/03/09 03:33:14;;;;;;;11.38;5.53;;;2.10;99.90;;;;;;5114196;27;20034;-73
2022/03/09 03:35:40;;;;;;;9.02;5.50;;;2.10;99.90;;;;;;5127618;27;20166;-71
2022/03/09 03:38:06;;;;;;;11.02;5.70;;;2.10;99.90;;;;;;5146709;27;20046;-72
2022/03/09 03:40:32;;;;;;;9.07;5.20;;;2.00;99.90;;;;;;5113619;27;20043;-72
2022/03/09 03:42:58;;;;;;;11.35;5.75;;;2.00;99.90;;;;;;5113789;27;20053;-73
2022/03/09 03:45:24;;;;;;;10.02;5.40;;;2.00;99.90;;;;;;5126312;27;20432;-72
2022/03/09 03:47:49;;;;;;;9.50;5.65;;;2.00;99.90;;;;;;5112331;27;20047;-71
2022/03/09 03:50:15;;;;;;;10.93;5.65;;;2.00;99.90;;;;;;5103382;27;20074;-72
2022/03/09 03:52:41;;;;;;;10.50;5.25;;;2.00;99.90;;;;;;5130978;27;20047;-72
2022/03/09 03:55:07;;;;;;;9.55;5.07;;;2.00;99.90;;;;;;5131868;27;20636;-72
2022/03/09 03:57:33;;;;;;;10.50;5.40;;;2.00;99.90;;;;;;5130434;27;20522;-72
2022/03/09 03:59:58;;;;;;;8.88;5.05;;;2.00;99.90;;;;;;5132225;27;20046;-72
2022/03/09 04:02:25;;;;;;;9.00;5.50;;;2.00;99.90;;;;;;5131626;27;20108;-72
2022/03/09 04:04:51;;;;;;;8.30;5.40;;;1.90;99.90;;;;;;5147446;27;20394;-71
2022/03/09 04:07:17;;;;;;;8.50;5.20;;;1.90;99.90;;;;;;5132216;27;20131;-72
2022/03/09 04:09:43;;;;;;;10.40;5.68;;;1.90;99.90;;;;;;5131026;27;20395;-72
2022/03/09 04:12:09;;;;;;;9.38;5.68;;;1.90;99.90;;;;;;5148964;27;20045;-72
2022/03/09 04:14:35;;;;;;;10.85;5.93;;;1.90;99.90;;;;;;5131123;27;20038;-72
2022/03/09 04:17:01;;;;;;;9.07;5.82;;;1.90;99.90;;;;;;5131614;27;20395;-72
2022/03/09 04:19:27;;;;;;;9.07;5.38;;;1.90;99.90;;;;;;5131254;27;20043;-72
2022/03/09 04:21:53;;;;;;;9.50;5.40;;;1.80;99.90;;;;;;5110471;27;20105;-71
2022/03/09 04:24:18;;;;;;;10.18;5.93;;;1.90;99.90;;;;;;5122088;27;20070;-73
2022/03/09 04:26:44;;;;;;;9.10;5.55;;;1.80;99.90;;;;;;5130119;27;20074;-73
2022/03/09 04:29:10;;;;;;;10.27;5.70;;;1.80;99.90;;;;;;5130964;27;20066;-72
2022/03/09 04:31:36;;;;;;;10.05;5.40;;;1.80;99.90;;;;;;5131466;27;20050;-73
2022/03/09 04:34:01;;;;;;;9.77;6.03;;;1.70;99.90;;;;;;5148167;27;20398;-72
2022/03/09 04:36:28;;;;;;;10.15;5.55;;;1.70;99.90;;;;;;5131453;27;20042;-73
2022/03/09 04:38:53;;;;;;;10.13;5.47;;;1.70;99.90;;;;;;5130504;27;20095;-73
2022/03/09 04:41:19;;;;;;;10.13;6.18;;;1.70;99.90;;;;;;5114574;27;20042;-73
2022/03/09 04:43:45;;;;;;;8.80;5.57;;;1.60;99.90;;;;;;5130820;27;20046;-72
2022/03/09 04:46:10;;;;;;;10.10;5.80;;;1.60;99.90;;;;;;5130588;27;20039;-72
2022/03/09 04:48:36;;;;;;;9.75;5.90;;;1.60;99.90;;;;;;5129910;27;20039;-72
2022/03/09 04:51:02;;;;;;;12.98;6.07;;;1.70;99.90;;;;;;5151053;27;20175;-73
2022/03/09 04:53:28;;;;;;;14.18;6.05;;;1.60;99.90;;;;;;5129766;27;20053;-73
2022/03/09 04:55:55;;;;;;;12.70;5.72;;;2.90;99.90;;;;;;5114223;27;20047;-73
2022/03/09 04:58:22;;;;;;;10.77;6.03;;;3.20;99.90;;;;;;5130118;27;20051;-73
2022/03/09 05:00:47;;;;;;;9.30;5.50;;;1.50;99.90;;;;;;5148279;27;20530;-71
2022/03/09 05:03:13;;;;;;;9.90;5.80;;;1.50;99.90;;;;;;5114851;27;20070;-72
2022/03/09 05:05:39;;;;;;;10.77;6.45;;;1.50;99.90;;;;;;5131939;27;20039;-72
2022/03/09 05:08:05;;;;;;;9.77;6.18;;;1.50;99.90;;;;;;5130371;27;20444;-73
2022/03/09 05:10:31;;;;;;;9.27;6.03;;;1.40;99.90;;;;;;5126806;28;20134;-72
2022/03/09 05:12:57;;;;;;;13.65;5.88;;;1.40;99.90;;;;;;5134708;27;20074;-72
2022/03/09 05:15:22;;;;;;;11.35;6.07;;;1.50;99.90;;;;;;5148025;27;20069;-72
2022/03/09 05:17:48;;;;;;;12.93;6.00;;;1.50;99.90;;;;;;5128968;27;20993;-71
2022/03/09 05:20:15;;;;;;;9.60;6.45;;;1.50;99.90;;;;;;5131357;27;20043;-71
2022/03/09 05:22:42;;;;;;;10.85;6.78;;;1.50;99.90;;;;;;5129115;27;20103;-71
2022/03/09 05:25:08;;;;;;;12.30;6.57;;;1.50;99.90;;;;;;5115167;27;20325;-71
2022/03/09 05:27:35;;;;;;;9.15;6.25;;;1.40;99.90;;;;;;5130072;27;20459;-72
2022/03/09 05:30:01;;;;;;;11.20;6.47;;;1.40;99.90;;;;;;5130443;27;20039;-72
2022/03/09 05:32:27;;;;;;;11.63;6.68;;;1.30;99.90;;;;;;5113422;27;20061;-73
2022/03/09 05:34:52;;;;;;;10.52;6.43;;;1.40;99.90;;;;;;5129946;27;20125;-72
2022/03/09 05:37:19;;;;;;;10.32;6.88;;;1.40;99.90;;;;;;5129297;27;20035;-72
2022/03/09 05:39:44;;;;;;;11.25;6.38;;;1.30;99.90;;;;;;5133988;27;20118;-72
2022/03/09 05:42:10;;;;;;;11.65;6.78;;;1.30;99.90;;;;;;5117714;27;20130;-73
2022/03/09 05:44:37;;;;;;;10.13;6.80;;;1.30;99.90;;;;;;5151660;27;20039;-72
2022/03/09 05:47:03;;;;;;;12.02;6.88;;;1.30;99.90;;;;;;5133649;27;20485;-72
2022/03/09 05:49:30;;;;;;;10.65;6.50;;;1.30;99.90;;;;;;5132324;27;20042;-72
2022/03/09 05:51:56;;;;;;;12.57;7.10;;;1.30;99.90;;;;;;5134334;27;20050;-72
2022/03/09 05:54:21;;;;;;;12.30;6.70;;;1.30;99.90;;;;;;5134749;27;20038;-73
2022/03/09 05:56:47;;;;;;;9.93;6.25;;;1.30;99.90;;;;;;5133004;27;20050;-73
2022/03/09 05:59:13;;;;;;;16.50;6.95;;;2.20;99.90;;;;;;5152896;27;20050;-72
2022/03/09 06:01:39;;;;;;;10.73;6.72;;;1.30;99.90;;;;;;5150608;27;20054;-72
2022/03/09 06:04:06;;;;;;;9.43;6.65;;;1.30;99.90;;;;;;5150724;27;20443;-72
2022/03/09 06:06:32;;;;;;;10.13;6.53;;;1.70;99.90;;;;;;5133651;27;20111;-72
2022/03/09 06:08:58;;;;;;;11.75;6.55;;;1.30;99.90;;;;;;5130318;27;20469;-72
2022/03/09 06:11:24;;;;;;;10.73;6.15;;;1.40;99.90;;;;;;5115640;27;20126;-73
2022/03/09 06:13:50;;;;;;;12.13;6.65;;;1.40;99.90;;;;;;5133092;27;20043;-73
2022/03/09 06:16:16;;;;;;;11.82;6.32;;;1.40;99.90;;;;;;5133812;27;20043;-73
2022/03/09 06:18:46;;;;;;;12.85;6.72;;;1.50;99.90;;;;;;5131311;27;20505;-73
2022/03/09 06:21:14;;;;;;;13.73;6.38;;;1.50;99.90;;;;;;5134133;27;20461;-72
2022/03/09 06:23:41;;;;;;;12.25;6.57;;;1.50;99.90;;;;;;5115758;27;20103;-73
2022/03/09 06:26:07;;;;;;;11.73;6.57;;;1.60;99.90;;;;;;5132861;27;20072;-73
2022/03/09 06:28:32;;;;;;;12.75;6.97;;;1.60;99.90;;;;;;5115640;27;20058;-72
2022/03/09 06:30:58;;;;;;;11.27;6.43;;;1.70;99.90;;;;;;5134676;27;20077;-72
2022/03/09 06:33:24;;;;;;;11.27;6.78;;;1.80;99.90;;;;;;5112007;27;20123;-72
2022/03/09 06:35:50;;;;;;;11.73;5.95;;;1.90;99.90;;;;;;5132955;27;20388;-73
2022/03/09 06:38:16;;;;;;;12.40;6.88;;;1.80;99.90;;;;;;5133555;27;20045;-73
2022/03/09 06:40:42;;;;;;;11.55;6.57;;;3.60;99.90;;;;;;5131832;27;20410;-73
2022/03/09 06:43:07;;;;;;;12.70;6.53;;;1.80;99.90;;;;;;5133628;27;20399;-72
2022/03/09 06:45:33;;;;;;;11.25;7.15;;;1.80;99.90;;;;;;5148893;27;20039;-72
2022/03/09 06:48:00;;;;;;;14.70;7.05;;;1.90;99.90;;;;;;5130828;27;20126;-72
2022/03/09 06:50:26;;;;;;;13.10;7.32;;;1.90;99.90;;;;;;5133376;27;20395;-74
2022/03/09 06:52:51;;;;;;;11.27;7.10;;;2.30;99.90;;;;;;5132072;27;20039;-71
2022/03/09 06:55:17;;;;;;;10.00;6.65;;;2.70;99.90;;;;;;5116949;27;20046;-72
2022/03/09 06:57:43;;;;;;;10.05;6.53;;;3.10;99.90;;;;;;5114167;27;20073;-72
2022/03/09 07:00:11;;;;;;;10.23;6.60;;;3.40;99.90;;;;;;5152778;27;20054;-72
2022/03/09 07:02:38;;;;;;;10.73;6.80;;;4.30;99.90;;;;;;5131215;27;20565;-73
2022/03/09 07:05:04;;;;;;;11.07;6.80;;;5.90;99.90;;;;;;5129133;27;20051;-74
2022/03/09 07:07:32;;;;;;;13.95;7.32;;;6.80;99.90;;;;;;5141097;27;20550;-72
2022/03/09 07:09:58;;;;;;;11.05;6.45;;;7.30;99.90;;;;;;5112719;27;20102;-72
2022/03/09 07:12:24;;;;;;;11.18;6.82;;;7.70;99.50;;;;;;5117780;27;20039;-72
2022/03/09 07:14:50;;;;;;;9.85;6.40;;;8.30;98.80;;;;;;5151897;27;20069;-72
2022/03/09 07:17:16;;;;;;;11.65;6.68;;;9.50;97.90;;;;;;5132921;27;20039;-72
2022/03/09 07:19:42;;;;;;;11.23;6.82;;;8.80;96.90;;;;;;5114133;27;20043;-72
2022/03/09 07:22:08;;;;;;;10.95;7.60;;;10.10;97.00;;;;;;5131706;27;20042;-73
2022/03/09 07:24:34;;;;;;;12.30;6.85;;;10.60;95.30;;;;;;5151110;27;20053;-72
2022/03/09 07:27:00;;;;;;;12.77;6.65;;;10.90;94.10;;;;;;5131794;27;20087;-72
2022/03/09 07:29:25;;;;;;;10.32;6.85;;;10.10;92.80;;;;;;5132005;27;20571;-72
2022/03/09 07:31:52;;;;;;;12.20;7.47;;;10.10;93.50;;;;;;5130677;27;20054;-71
2022/03/09 07:34:20;;;;;;;11.68;6.70;;;11.50;92.90;;;;;;5131570;27;20050;-72
2022/03/09 07:36:45;;;;;;;12.13;7.30;;;10.90;91.70;;;;;;5110350;27;20054;-73
2022/03/09 07:39:11;;;;;;;10.45;7.32;;;10.60;91.90;;;;;;5130091;27;20344;-72
2022/03/09 07:41:37;;;;;;;11.50;7.60;;;10.90;91.40;;;;;;5130813;27;20042;-73
2022/03/09 07:44:03;;;;;;;11.40;7.03;;;11.00;91.00;;;;;;5131996;27;20484;-73
2022/03/09 07:46:28;;;;;;;10.95;7.43;;;11.00;90.60;;;;;;5130722;27;20421;-72
2022/03/09 07:48:54;;;;;;;12.35;7.20;;;10.70;90.30;;;;;;5130203;27;20046;-72
2022/03/09 07:51:20;;;;;;;9.70;6.60;;;12.00;89.70;;;;;;5131598;27;20225;-74
2022/03/09 07:53:45;;;;;;;11.05;6.85;;;11.40;87.80;;;;;;5113981;27;20452;-73
2022/03/09 07:56:12;;;;;;;11.98;6.82;;;12.00;86.10;;;;;;5113649;27;20042;-73
2022/03/09 07:58:38;;;;;;;10.23;7.85;;;12.80;84.10;;;;;;5130926;27;20051;-73
2022/03/09 08:01:05;;;;;;;11.35;6.32;;;14.40;80.30;;;;;;5130781;27;20051;-73
2022/03/09 08:03:32;;;;;;;12.45;7.00;;;13.60;76.20;;;;;;5129399;27;20470;-73
2022/03/09 08:05:58;;;;;;;10.82;6.53;;;12.40;77.40;;;;;;5132269;27;20181;-74
2022/03/09 08:08:24;;;;;;;12.90;7.07;;;11.80;79.10;;;;;;5146981;27;20079;-74
2022/03/09 08:10:50;;;;;;;10.70;6.60;;;10.70;80.30;;;;;;5112728;27;20078;-73
2022/03/09 08:13:16;;;;;;;10.60;7.40;;;13.30;76.10;;;;;;5118246;27;20053;-73
2022/03/09 08:15:42;;;;;;;11.02;7.25;;;15.40;72.90;;;;;;5130070;27;20042;-75
2022/03/09 08:18:08;;;;;;;10.93;7.40;;;16.80;68.90;;;;;;5147520;27;20114;-73
2022/03/09 08:20:35;;;;;;;9.98;6.78;;;18.00;64.10;;;;;;5130822;27;20086;-74
2022/03/09 08:23:01;;;;;;;12.27;6.78;;;18.90;61.10;;;;;;5149848;27;20065;-73
2022/03/09 08:25:26;;;;;;;11.55;6.82;;;19.80;57.80;;;;;;5130783;27;20051;-73
2022/03/09 08:27:52;;;;;;;8.25;6.20;;;20.90;56.30;;;;;;5130046;27;20046;-74
2022/03/09 08:30:17;;;;;;;15.57;6.85;;;21.30;52.70;;;;;;5111332;27;20043;-74
2022/03/09 08:32:43;;;;;;;11.35;6.22;;;19.10;52.10;;;;;;5107683;27;20050;-74
2022/03/09 08:35:09;;;;;;;12.85;6.20;;;17.40;51.90;;;;;;5110771;27;20044;-75
2022/03/09 08:37:35;;;;;;;12.60;6.32;;;16.00;53.00;;;;;;5140000;27;20410;-74
2022/03/09 08:40:01;;;;;;;9.55;6.13;;;14.90;54.40;;;;;;5149257;27;20045;-74
2022/03/09 08:42:26;;;;;;;9.30;6.30;;;13.90;56.10;;;;;;5148268;27;20042;-73
2022/03/09 08:44:52;;;;;;;10.23;6.63;;;12.60;57.50;;;;;;5127908;27;20055;-73
2022/03/09 08:47:18;;;;;;;9.40;6.53;;;13.00;59.50;;;;;;5118056;27;20395;-73
2022/03/09 08:49:43;;;;;;;10.32;6.47;;;12.30;60.10;;;;;;5148517;27;20421;-75
2022/03/09 08:52:11;;;;;;;13.32;6.88;;;15.30;58.50;;;;;;5129671;27;20042;-74
2022/03/09 08:54:40;;;;;;;8.45;6.65;;;17.70;55.30;;;;;;5130831;27;20486;-77
2022/03/09 08:57:05;;;;;;;8.95;6.03;;;19.60;53.60;;;;;;5128825;27;20517;-73
2022/03/09 08:59:31;;;;;;;13.88;6.75;;;21.30;50.70;;;;;;5148335;27;20038;-73
2022/03/09 09:01:57;;;;;;;11.27;6.35;;;22.00;49.10;;;;;;5144884;27;20126;-73
2022/03/09 09:04:23;;;;;;;9.18;6.45;;;23.20;47.10;;;;;;5147750;27;20046;-73
2022/03/09 09:06:48;;;;;;;11.90;6.40;;;24.00;44.20;;;;;;5146058;27;20131;-72
2022/03/09 09:09:14;;;;;;;10.18;6.15;;;24.70;42.50;;;;;;5134246;27;20054;-73
2022/03/09 09:11:41;;;;;;;11.68;6.03;;;25.40;41.90;;;;;;5111594;27;20078;-72
2022/03/09 09:14:07;;;;;;;9.05;6.15;;;26.00;40.30;;;;;;5136052;27;20062;-74
2022/03/09 09:16:33;;;;;;;10.60;6.50;;;26.10;39.90;;;;;;5142142;27;20407;-73
2022/03/09 09:18:58;;;;;;;8.70;6.07;;;26.20;40.10;;;;;;5139121;27;20398;-74
2022/03/09 09:21:24;;;;;;;11.85;5.90;;;26.80;38.40;;;;;;5152531;27;20043;-73
2022/03/09 09:23:50;;;;;;;11.68;6.10;;;26.90;38.40;;;;;;5151750;27;20035;-73
2022/03/09 09:26:18;;;;;;;15.13;6.10;;;27.50;37.80;;;;;;5133199;27;20050;-74
2022/03/09 09:28:44;;;;;;;11.02;6.50;;;28.20;36.90;;;;;;5151254;27;20467;-74
2022/03/09 09:31:10;;;;;;;8.00;6.00;;;28.70;36.30;;;;;;5154502;27;20463;-77
2022/03/09 09:33:36;;;;;;;9.20;5.97;;;28.80;35.70;;;;;;5150643;27;20093;-74
2022/03/09 09:36:02;;;;;;;8.15;5.97;;;28.60;34.60;;;;;;5153338;27;20050;-73
2022/03/09 09:38:28;;;;;;;11.70;6.18;;;28.50;34.40;;;;;;5152066;27;20038;-74
2022/03/09 09:40:55;;;;;;;13.90;6.07;;;28.80;34.90;;;;;;5151995;27;20046;-73
2022/03/09 09:43:22;;;;;;;9.98;5.95;;;29.70;34.30;;;;;;5151326;27;20110;-74
2022/03/09 09:45:48;;;;;;;7.63;5.68;;;30.00;33.70;;;;;;5153476;27;20050;-73
2022/03/09 09:48:15;;;;;;;11.55;6.15;;;30.10;32.50;;;;;;5133007;27;20487;-73
2022/03/09 09:50:43;;;;;;;11.20;6.30;;;29.80;33.10;;;;;;5152377;27;20038;-73
2022/03/09 09:53:12;;;;;;;12.13;6.28;;;30.00;32.80;;;;;;5152466;27;20123;-73
2022/03/09 09:55:39;;;;;;;12.07;6.18;;;30.00;33.40;;;;;;5152753;27;20039;-74
2022/03/09 09:58:05;;;;;;;8.63;6.00;;;30.20;32.30;;;;;;5135638;27;20058;-76
2022/03/09 10:00:32;;;;;;;11.80;6.20;;;30.50;32.30;;;;;;5151499;27;20045;-74
2022/03/09 10:02:58;;;;;;;9.90;5.88;;;30.40;32.10;;;;;;5133082;27;20043;-73
2022/03/09 10:05:25;;;;;;;8.90;5.97;;;30.50;31.60;;;;;;5134022;27;20043;-74
2022/03/09 10:08:03;;;;;;;9.15;6.13;;;31.00;32.00;;;;;;5132386;27;20045;-74
2022/03/09 10:10:40;;;;;;;10.25;6.00;;;31.20;32.10;;;;;;5151489;27;20046;-74
2022/03/09 10:13:16;;;;;;;8.45;6.00;;;31.90;31.50;;;;;;5133521;27;20130;-73
2022/03/09 10:15:44;;;;;;;7.90;6.15;;;32.20;31.60;;;;;;5132498;27;20043;-74
2022/03/09 10:18:22;;;;;;;10.25;5.93;;;33.00;31.70;;;;;;5151604;27;20122;-74
2022/03/09 10:20:50;;;;;;;7.80;5.80;;;33.40;30.90;;;;;;5133067;27;20042;-74
2022/03/09 10:23:17;;;;;;;14.93;6.53;;;33.60;30.50;;;;;;5132830;27;20521;-74
2022/03/09 10:25:46;;;;;;;7.32;5.28;;;33.50;30.10;;;;;;5134144;27;20043;-74
2022/03/09 10:28:12;;;;;;;9.60;5.63;;;33.50;30.20;;;;;;5130443;27;20114;-74
2022/03/09 10:30:41;;;;;;;6.72;5.63;;;34.00;30.00;;;;;;5128392;27;20436;-74
2022/03/09 10:33:12;;;;;;;10.77;5.80;;;33.90;29.90;;;;;;5112373;27;20054;-74
2022/03/09 10:35:43;;;;;;;9.10;5.95;;;33.50;29.70;;;;;;5130434;27;20051;-74
2022/03/09 10:38:21;;;;;;;7.60;5.47;;;33.70;29.50;;;;;;5113541;27;20040;-74
2022/03/09 10:40:49;;;;;;;7.88;5.70;;;34.30;29.70;;;;;;5095870;27;20065;-74
2022/03/09 10:43:18;;;;;;;7.15;5.85;;;34.30;29.40;;;;;;5111658;27;20043;-74
2022/03/09 10:46:03;;;;;;;8.93;5.93;;;34.80;29.50;;;;;;5131046;27;20096;-75
2022/03/09 10:49:00;;;;;;;6.82;5.82;;;35.10;29.40;;;;;;5128236;27;20395;-74
2022/03/09 10:51:31;;;;;;;7.65;5.57;;;35.40;29.20;;;;;;5130495;27;20035;-74
2022/03/09 10:53:59;;;;;;;8.77;5.78;;;35.50;29.20;;;;;;5131798;27;20176;-74
2022/03/09 10:56:25;;;;;;;6.80;5.63;;;35.80;28.90;;;;;;5131323;27;20104;-75
2022/03/09 10:58:51;;;;;;;8.18;6.00;;;36.20;28.90;;;;;;5111047;27;20147;-74
2022/03/09 11:01:18;;;;;;;8.30;5.78;;;35.90;28.60;;;;;;5130722;27;20104;-73
2022/03/09 11:03:45;;;;;;;9.25;5.50;;;36.40;28.30;;;;;;5128771;27;20471;-73
2022/03/09 11:06:11;;;;;;;9.45;5.60;;;36.00;29.00;;;;;;5129501;27;20081;-73
2022/03/09 11:08:38;;;;;;;7.38;5.60;;;36.60;29.40;;;;;;5132125;27;20039;-74
2022/03/09 11:11:06;;;;;;;7.00;5.47;;;37.30;29.30;;;;;;5113765;27;20050;-72
2022/03/09 11:13:33;;;;;;;9.40;5.35;;;37.30;29.30;;;;;;5111577;27;20399;-74
2022/03/09 11:16:01;;;;;;;7.03;5.90;;;37.80;29.00;;;;;;5112517;27;20424;-73
2022/03/09 11:18:28;;;;;;;11.85;5.72;;;38.20;29.10;;;;;;5110264;27;20134;-73
2022/03/09 11:21:00;;;;;;;7.57;5.50;;;38.10;28.90;;;;;;5130931;27;20039;-73
2022/03/09 11:23:27;;;;;;;8.20;5.60;;;38.30;28.60;;;;;;5111868;27;20154;-73
2022/03/09 11:25:57;;;;;;;7.10;5.55;;;37.70;28.40;;;;;;5129684;27;20488;-73
2022/03/09 11:28:25;;;;;;;8.98;6.10;;;37.20;28.50;;;;;;5112928;27;20047;-73
2022/03/09 11:31:00;;;;;;;10.57;5.85;;;37.20;28.30;;;;;;5128643;27;20118;-73
2022/03/09 11:33:36;;;;;;;7.45;5.72;;;36.50;28.20;;;;;;5110281;27;20100;-73
2022/03/09 11:36:02;;;;;;;9.35;5.93;;;36.00;28.50;;;;;;5111970;27;20047;-73
2022/03/09 11:38:38;;;;;;;8.02;5.68;;;35.20;28.30;;;;;;5111145;27;20531;-74
2022/03/09 11:41:17;;;;;;;8.05;5.80;;;34.90;28.60;;;;;;5110974;27;20043;-74
2022/03/09 11:43:44;;;;;;;7.85;5.72;;;34.60;28.50;;;;;;5111172;27;20067;-74
2022/03/09 11:46:09;;;;;;;7.15;5.35;;;34.10;28.70;;;;;;5094123;27;20051;-75
2022/03/09 11:48:49;;;;;;;7.53;5.60;;;34.00;28.80;;;;;;5109246;27;20043;-74
2022/03/09 11:51:15;;;;;;;7.93;5.55;;;34.60;29.00;;;;;;5147451;27;20046;-75
2022/03/09 11:53:52;;;;;;;8.77;5.63;;;34.70;29.00;;;;;;5149412;27;20356;-75
2022/03/09 11:56:50;;;;;;;8.48;5.65;;;34.80;28.60;;;;;;5133856;27;20043;-75
2022/03/09 11:59:21;;;;;;;7.25;5.95;;;34.10;28.80;;;;;;5131939;27;20221;-74
2022/03/09 12:01:58;;;;;;;8.32;5.65;;;34.00;28.60;;;;;;5130530;27;20053;-74
2022/03/09 12:04:42;;;;;;;8.68;5.72;;;34.10;28.20;;;;;;5149557;27;20046;-74
2022/03/09 12:07:12;;;;;;;7.03;5.80;;;33.50;28.10;;;;;;5131999;27;20372;-73
2022/03/09 12:10:02;;;;;;;10.55;6.10;;;33.10;28.30;;;;;;5117044;27;20403;-74
2022/03/09 12:12:29;;;;;;;9.63;6.20;;;33.00;28.40;;;;;;5114293;27;20133;-74
2022/03/09 12:15:07;;;;;;;9.35;6.05;;;33.00;28.70;;;;;;5110590;27;20046;-73
2022/03/09 12:17:44;;;;;;;7.93;6.20;;;33.00;28.20;;;;;;5109131;27;20047;-73
2022/03/09 12:20:27;;;;;;;8.25;6.38;;;31.90;28.50;;;;;;5111519;27;20043;-73
2022/03/09 12:22:56;;;;;;;7.47;6.07;;;31.00;29.00;;;;;;5109690;27;20035;-73
2022/03/09 12:25:45;;;;;;;12.77;6.28;;;31.00;28.90;;;;;;5128236;27;20043;-73
2022/03/09 12:28:25;;;;;;;9.20;6.30;;;30.70;29.20;;;;;;5112905;27;20051;-73
2022/03/09 12:30:57;;;;;;;12.48;6.95;;;30.90;29.00;;;;;;5130764;27;20042;-73
2022/03/09 12:33:33;;;;;;;9.15;5.90;;;30.80;29.20;;;;;;5149939;27;20046;-73
2022/03/09 12:36:10;;;;;;;10.40;6.28;;;30.50;29.40;;;;;;5150352;27;20049;-73
2022/03/09 12:38:44;;;;;;;9.65;6.00;;;30.60;29.70;;;;;;5129042;27;20078;-74
2022/03/09 12:41:32;;;;;;;9.80;6.60;;;30.50;29.60;;;;;;5126224;27;20050;-74
2022/03/09 12:43:59;;;;;;;12.32;6.28;;;30.50;29.10;;;;;;5128102;27;20050;-74
2022/03/09 12:46:26;;;;;;;10.63;6.45;;;30.40;29.40;;;;;;5109890;28;20035;-74
2022/03/09 12:49:03;;;;;;;8.18;6.68;;;30.80;29.20;;;;;;5108394;27;20039;-74